createdAt,value
2017-07-05T00:00:02.005Z,0
2017-07-05T00:01:01.331Z,0
2017-07-05T00:02:02.286Z,0
2017-07-05T00:03:02.304Z,0
2017-07-05T00:04:02.303Z,0
2017-07-05T00:05:01.983Z,0
2017-07-05T00:06:01.272Z,0
2017-07-05T00:07:01.930Z,0
2017-07-05T00:08:01.608Z,0
2017-07-05T00:09:01.912Z,0
2017-07-05T00:10:01.607Z,0
2017-07-05T00:11:01.907Z,0
2017-07-05T00:12:01.233Z,0
2017-07-05T00:13:01.582Z,0
2017-07-05T00:14:01.223Z,0
2017-07-05T00:15:01.220Z,0
2017-07-05T00:16:01.206Z,0
2017-07-05T00:17:01.872Z,0
2017-07-05T00:18:01.959Z,0
2017-07-05T00:19:01.210Z,0
2017-07-05T00:20:01.844Z,0
2017-07-05T00:21:01.177Z,0
2017-07-05T00:22:01.506Z,0
2017-07-05T00:23:01.843Z,0
2017-07-05T00:24:01.482Z,0
2017-07-05T00:25:01.485Z,0
2017-07-05T00:26:01.465Z,0
2017-07-05T00:27:01.460Z,0
2017-07-05T00:28:01.453Z,0
2017-07-05T00:29:01.115Z,0
2017-07-05T00:30:01.487Z,0
2017-07-05T00:31:01.773Z,0
2017-07-05T00:32:01.751Z,0
2017-07-05T00:33:01.435Z,0
2017-07-05T00:34:01.759Z,0
2017-07-05T00:35:01.404Z,0
2017-07-05T00:36:01.733Z,0
2017-07-05T00:37:02.051Z,0
2017-07-05T00:38:01.719Z,0
2017-07-05T00:39:01.371Z,0
2017-07-05T00:40:01.369Z,0
2017-07-05T00:41:01.613Z,0
2017-07-05T00:42:01.032Z,0
2017-07-05T00:43:01.357Z,0
2017-07-05T00:44:01.345Z,0
2017-07-05T00:45:01.678Z,0
2017-07-05T00:46:01.652Z,0
2017-07-05T00:47:01.005Z,0
2017-07-05T00:48:00.986Z,0
2017-07-05T00:49:01.306Z,0
2017-07-05T00:50:00.966Z,0
2017-07-05T00:51:01.287Z,0
2017-07-05T00:52:01.307Z,0
2017-07-05T00:53:01.625Z,0
2017-07-05T00:54:00.967Z,0
2017-07-05T00:55:01.262Z,0
2017-07-05T00:56:01.608Z,0
2017-07-05T00:57:00.921Z,0
2017-07-05T00:58:01.923Z,0
2017-07-05T00:59:01.252Z,0
2017-07-05T01:00:01.247Z,0
2017-07-05T01:01:01.548Z,0
2017-07-05T01:02:00.893Z,0
2017-07-05T01:03:01.533Z,0
2017-07-05T01:04:01.210Z,0
2017-07-05T01:05:01.195Z,0
2017-07-05T01:06:01.186Z,0
2017-07-05T01:07:00.847Z,0
2017-07-05T01:08:00.853Z,0
2017-07-05T01:09:01.195Z,0
2017-07-05T01:10:01.493Z,0
2017-07-05T01:11:01.148Z,0
2017-07-05T01:12:00.817Z,0
2017-07-05T01:13:01.144Z,0
2017-07-05T01:14:01.149Z,0
2017-07-05T01:15:00.787Z,0
2017-07-05T01:16:00.792Z,0
2017-07-05T01:17:00.779Z,0
2017-07-05T01:18:01.107Z,0
2017-07-05T01:19:01.093Z,0
2017-07-05T01:20:01.085Z,0
2017-07-05T01:21:01.086Z,0
2017-07-05T01:22:01.775Z,0
2017-07-05T01:23:00.733Z,0
2017-07-05T01:24:01.071Z,0
2017-07-05T01:25:01.434Z,0
2017-07-05T01:26:01.039Z,0
2017-07-05T01:27:01.041Z,0
2017-07-05T01:28:01.034Z,0
2017-07-05T01:29:01.039Z,0
2017-07-05T01:30:01.013Z,0
2017-07-05T01:31:01.032Z,0
2017-07-05T01:32:00.669Z,0
2017-07-05T01:33:01.672Z,0
2017-07-05T01:34:00.655Z,0
2017-07-05T01:35:00.982Z,0
2017-07-05T01:36:00.654Z,0
2017-07-05T01:37:00.645Z,0
2017-07-05T01:38:01.280Z,0
2017-07-05T01:39:01.280Z,0
2017-07-05T01:40:00.988Z,0
2017-07-05T01:41:00.941Z,0
2017-07-05T01:42:01.254Z,0
2017-07-05T01:43:00.603Z,0
2017-07-05T01:44:00.604Z,0
2017-07-05T01:45:01.235Z,0
2017-07-05T01:46:00.919Z,0
2017-07-05T01:47:00.560Z,0
2017-07-05T01:48:00.881Z,0
2017-07-05T01:49:00.562Z,0
2017-07-05T01:50:00.538Z,0
2017-07-05T01:51:00.539Z,0
2017-07-05T01:52:00.853Z,0
2017-07-05T01:53:00.545Z,0
2017-07-05T01:54:01.188Z,0
2017-07-05T01:55:00.840Z,0
2017-07-05T01:56:00.832Z,0
2017-07-05T01:57:00.499Z,0
2017-07-05T01:58:01.143Z,0
2017-07-05T01:59:00.801Z,0
2017-07-05T02:00:00.809Z,0
2017-07-05T02:01:00.807Z,0
2017-07-05T02:02:01.133Z,0
2017-07-05T02:03:01.099Z,0
2017-07-05T02:04:01.094Z,0
2017-07-05T02:05:00.780Z,0
2017-07-05T02:06:00.435Z,0
2017-07-05T02:07:01.134Z,0
2017-07-05T02:08:00.753Z,0
2017-07-05T02:09:01.068Z,0
2017-07-05T02:10:00.719Z,0
2017-07-05T02:11:01.075Z,0
2017-07-05T02:12:00.726Z,0
2017-07-05T02:13:00.374Z,0
2017-07-05T02:14:00.695Z,0
2017-07-05T02:15:01.026Z,0
2017-07-05T02:16:01.024Z,0
2017-07-05T02:17:00.698Z,0
2017-07-05T02:18:00.993Z,0
2017-07-05T02:19:00.657Z,0
2017-07-05T02:20:00.333Z,0
2017-07-05T02:21:00.975Z,0
2017-07-05T02:22:00.640Z,0
2017-07-05T02:23:00.625Z,0
2017-07-05T02:24:00.951Z,0
2017-07-05T02:25:00.972Z,0
2017-07-05T02:26:00.636Z,4
2017-07-05T02:27:00.933Z,4
2017-07-05T02:28:00.284Z,4
2017-07-05T02:29:00.918Z,0
2017-07-05T02:30:00.268Z,0
2017-07-05T02:31:00.587Z,4
2017-07-05T02:32:00.583Z,4
2017-07-05T02:33:00.278Z,8
2017-07-05T02:34:00.568Z,4
2017-07-05T02:35:00.557Z,8
2017-07-05T02:36:00.860Z,8
2017-07-05T02:37:00.542Z,8
2017-07-05T02:38:00.524Z,12
2017-07-05T02:39:00.561Z,12
2017-07-05T02:40:00.517Z,12
2017-07-05T02:41:00.830Z,12
2017-07-05T02:42:00.869Z,16
2017-07-05T02:43:00.482Z,20
2017-07-05T02:44:00.506Z,20
2017-07-05T02:45:00.155Z,20
2017-07-05T02:46:00.138Z,24
2017-07-05T02:47:00.456Z,28
2017-07-05T02:48:00.461Z,28
2017-07-05T02:49:01.116Z,36
2017-07-05T02:50:00.116Z,40
2017-07-05T02:51:00.430Z,44
2017-07-05T02:52:00.429Z,48
2017-07-05T02:53:00.458Z,52
2017-07-05T02:54:00.763Z,60
2017-07-05T02:55:00.118Z,64
2017-07-05T02:56:00.394Z,72
2017-07-05T02:57:00.388Z,80
2017-07-05T02:58:00.757Z,88
2017-07-05T02:59:00.380Z,96
2017-07-05T03:00:00.371Z,104
2017-07-05T03:01:00.377Z,116
2017-07-05T03:02:00.366Z,124
2017-07-05T03:03:00.357Z,132
2017-07-05T03:04:00.340Z,148
2017-07-05T03:05:00.369Z,160
2017-07-05T03:06:00.328Z,176
2017-07-05T03:07:00.689Z,188
2017-07-05T03:07:59.983Z,204
2017-07-05T03:08:59.977Z,220
2017-07-05T03:10:00.003Z,236
2017-07-05T03:10:59.968Z,252
2017-07-05T03:12:00.612Z,268
2017-07-05T03:13:00.636Z,288
2017-07-05T03:13:59.987Z,304
2017-07-05T03:15:00.283Z,324
2017-07-05T03:16:00.616Z,340
2017-07-05T03:17:00.600Z,356
2017-07-05T03:17:59.950Z,376
2017-07-05T03:19:00.259Z,400
2017-07-05T03:20:00.231Z,420
2017-07-05T03:21:00.568Z,440
2017-07-05T03:22:00.268Z,468
2017-07-05T03:22:59.897Z,496
2017-07-05T03:24:00.530Z,532
2017-07-05T03:25:00.533Z,576
2017-07-05T03:26:00.553Z,620
2017-07-05T03:26:59.859Z,660
2017-07-05T03:28:00.183Z,696
2017-07-05T03:29:00.223Z,732
2017-07-05T03:30:00.511Z,764
2017-07-05T03:30:59.844Z,796
2017-07-05T03:32:00.817Z,832
2017-07-05T03:32:59.828Z,868
2017-07-05T03:34:00.156Z,908
2017-07-05T03:35:00.133Z,944
2017-07-05T03:36:00.473Z,984
2017-07-05T03:37:00.457Z,1016
2017-07-05T03:37:59.858Z,1048
2017-07-05T03:39:00.107Z,1076
2017-07-05T03:40:00.432Z,1104
2017-07-05T03:41:00.097Z,1136
2017-07-05T03:42:00.093Z,1168
2017-07-05T03:43:00.097Z,1204
2017-07-05T03:44:00.076Z,1244
2017-07-05T03:44:59.754Z,1280
2017-07-05T03:46:00.070Z,1316
2017-07-05T03:46:59.750Z,1352
2017-07-05T03:48:00.071Z,1388
2017-07-05T03:48:59.729Z,1432
2017-07-05T03:50:00.056Z,1480
2017-07-05T03:51:00.048Z,1524
2017-07-05T03:52:00.357Z,1564
2017-07-05T03:53:00.048Z,1600
2017-07-05T03:54:00.051Z,1636
2017-07-05T03:55:00.017Z,1672
2017-07-05T03:56:00.022Z,1708
2017-07-05T03:56:59.995Z,1744
2017-07-05T03:57:59.993Z,1780
2017-07-05T03:58:59.654Z,1816
2017-07-05T03:59:59.648Z,1864
2017-07-05T04:00:59.649Z,1908
2017-07-05T04:01:59.969Z,1944
2017-07-05T04:03:00.327Z,1972
2017-07-05T04:03:59.644Z,1988
2017-07-05T04:04:59.971Z,2004
2017-07-05T04:06:00.273Z,2028
2017-07-05T04:07:00.276Z,2056
2017-07-05T04:07:59.632Z,2076
2017-07-05T04:08:59.948Z,2096
2017-07-05T04:09:59.960Z,2116
2017-07-05T04:10:59.916Z,2144
2017-07-05T04:11:59.913Z,2184
2017-07-05T04:12:59.964Z,2224
2017-07-05T04:14:00.545Z,2268
2017-07-05T04:14:59.894Z,2312
2017-07-05T04:15:59.888Z,2344
2017-07-05T04:17:00.214Z,2372
2017-07-05T04:17:59.542Z,2396
2017-07-05T04:18:59.867Z,2432
2017-07-05T04:19:59.534Z,2456
2017-07-05T04:21:00.187Z,2484
2017-07-05T04:22:00.173Z,2516
2017-07-05T04:22:59.518Z,2544
2017-07-05T04:23:59.517Z,2572
2017-07-05T04:24:59.838Z,2604
2017-07-05T04:25:59.500Z,2636
2017-07-05T04:26:59.819Z,2664
2017-07-05T04:28:00.512Z,2708
2017-07-05T04:28:59.865Z,2752
2017-07-05T04:29:59.477Z,2792
2017-07-05T04:30:59.842Z,2836
2017-07-05T04:31:59.794Z,2888
2017-07-05T04:32:59.476Z,2948
2017-07-05T04:33:59.805Z,3000
2017-07-05T04:35:00.119Z,3044
2017-07-05T04:35:59.774Z,3080
2017-07-05T04:36:59.792Z,3108
2017-07-05T04:38:00.239Z,3116
2017-07-05T04:38:59.771Z,3112
2017-07-05T04:39:59.776Z,3120
2017-07-05T04:40:59.757Z,3132
2017-07-05T04:41:59.747Z,3152
2017-07-05T04:42:59.756Z,3168
2017-07-05T04:43:59.439Z,3200
2017-07-05T04:44:59.726Z,3236
2017-07-05T04:45:59.724Z,3264
2017-07-05T04:46:59.719Z,3268
2017-07-05T04:47:59.713Z,3244
2017-07-05T04:48:59.729Z,3220
2017-07-05T04:49:59.709Z,3160
2017-07-05T04:50:59.700Z,3088
2017-07-05T04:51:59.719Z,3228
2017-07-05T04:52:59.705Z,3480
2017-07-05T04:53:59.353Z,3636
2017-07-05T04:55:00.029Z,3692
2017-07-05T04:55:59.694Z,3736
2017-07-05T04:56:59.367Z,3784
2017-07-05T04:57:59.333Z,3836
2017-07-05T04:58:59.675Z,3896
2017-07-05T04:59:59.326Z,3964
2017-07-05T05:00:59.335Z,4024
2017-07-05T05:01:59.342Z,4068
2017-07-05T05:02:59.656Z,4088
2017-07-05T05:03:59.646Z,4116
2017-07-05T05:04:59.322Z,4164
2017-07-05T05:05:59.955Z,4224
2017-07-05T05:06:59.685Z,4284
2017-07-05T05:07:59.640Z,4328
2017-07-05T05:08:59.626Z,4364
2017-07-05T05:09:59.635Z,4408
2017-07-05T05:10:59.947Z,4460
2017-07-05T05:11:59.952Z,4496
2017-07-05T05:12:59.936Z,4504
2017-07-05T05:13:59.594Z,4500
2017-07-05T05:14:59.934Z,4504
2017-07-05T05:15:59.592Z,4532
2017-07-05T05:16:59.596Z,4584
2017-07-05T05:17:59.246Z,4644
2017-07-05T05:18:59.244Z,4680
2017-07-05T05:19:59.238Z,4708
2017-07-05T05:20:59.600Z,4732
2017-07-05T05:21:59.561Z,4776
2017-07-05T05:22:59.229Z,4824
2017-07-05T05:23:59.550Z,4848
2017-07-05T05:24:59.555Z,4844
2017-07-05T05:25:59.890Z,4816
2017-07-05T05:26:59.547Z,4784
2017-07-05T05:27:59.536Z,4752
2017-07-05T05:28:59.868Z,4724
2017-07-05T05:29:59.549Z,4692
2017-07-05T05:30:59.217Z,4664
2017-07-05T05:31:59.543Z,4656
2017-07-05T05:32:59.526Z,4656
2017-07-05T05:33:59.183Z,4692
2017-07-05T05:34:59.856Z,4800
2017-07-05T05:35:59.189Z,5048
2017-07-05T05:37:00.155Z,5640
2017-07-05T05:37:59.899Z,5668
2017-07-05T05:38:59.508Z,5300
2017-07-05T05:39:59.836Z,5120
2017-07-05T05:40:59.816Z,5064
2017-07-05T05:41:59.873Z,4968
2017-07-05T05:42:59.495Z,4932
2017-07-05T05:43:59.480Z,4800
2017-07-05T05:44:59.148Z,5116
2017-07-05T05:45:59.482Z,4912
2017-07-05T05:46:59.474Z,4956
2017-07-05T05:47:59.149Z,5120
2017-07-05T05:48:59.828Z,5196
2017-07-05T05:49:59.132Z,5012
2017-07-05T05:50:59.128Z,5028
2017-07-05T05:51:59.125Z,5156
2017-07-05T05:52:59.486Z,5024
2017-07-05T05:53:59.446Z,4724
2017-07-05T05:54:59.772Z,4696
2017-07-05T05:55:59.798Z,4756
2017-07-05T05:56:59.111Z,4792
2017-07-05T05:57:59.432Z,4780
2017-07-05T05:58:59.428Z,4848
2017-07-05T05:59:59.760Z,4892
2017-07-05T06:00:59.436Z,4936
2017-07-05T06:01:59.493Z,5000
2017-07-05T06:03:00.145Z,5148
2017-07-05T06:03:59.470Z,5308
2017-07-05T06:04:59.436Z,5484
2017-07-05T06:05:59.788Z,5820
2017-07-05T06:06:59.409Z,6008
2017-07-05T06:07:59.422Z,6120
2017-07-05T06:08:59.074Z,6264
2017-07-05T06:09:59.785Z,6484
2017-07-05T06:10:59.089Z,6748
2017-07-05T06:11:59.743Z,6668
2017-07-05T06:12:59.394Z,6744
2017-07-05T06:13:59.410Z,6944
2017-07-05T06:14:59.392Z,7208
2017-07-05T06:15:59.715Z,7376
2017-07-05T06:16:59.412Z,7516
2017-07-05T06:17:59.713Z,7536
2017-07-05T06:18:59.387Z,7412
2017-07-05T06:19:59.052Z,7272
2017-07-05T06:20:59.065Z,7164
2017-07-05T06:21:59.371Z,7300
2017-07-05T06:22:59.184Z,6996
2017-07-05T06:23:59.369Z,6692
2017-07-05T06:24:59.723Z,6452
2017-07-05T06:25:59.712Z,6216
2017-07-05T06:26:59.364Z,6108
2017-07-05T06:27:59.692Z,6012
2017-07-05T06:28:59.703Z,5952
2017-07-05T06:29:59.054Z,5932
2017-07-05T06:30:59.356Z,5920
2017-07-05T06:31:59.694Z,5904
2017-07-05T06:32:59.358Z,5872
2017-07-05T06:33:59.694Z,5848
2017-07-05T06:34:59.024Z,5872
2017-07-05T06:35:59.678Z,5968
2017-07-05T06:36:59.720Z,6184
2017-07-05T06:37:59.675Z,7092
2017-07-05T06:38:59.674Z,9176
2017-07-05T06:39:59.343Z,10996
2017-07-05T06:40:59.018Z,16864
2017-07-05T06:41:59.015Z,24832
2017-07-05T06:42:59.999Z,28256
2017-07-05T06:43:59.675Z,32224
2017-07-05T06:44:59.342Z,38400
2017-07-05T06:45:59.354Z,39520
2017-07-05T06:46:59.421Z,41728
2017-07-05T06:47:59.377Z,40032
2017-07-05T06:48:59.338Z,38976
2017-07-05T06:49:59.340Z,37760
2017-07-05T06:50:59.671Z,32256
2017-07-05T06:51:59.014Z,25920
2017-07-05T06:52:59.344Z,23456
2017-07-05T06:53:59.345Z,24736
2017-07-05T06:54:59.345Z,27040
2017-07-05T06:55:59.019Z,31776
2017-07-05T06:56:59.674Z,42336
2017-07-05T06:57:59.368Z,45984
2017-07-05T06:58:59.023Z,43744
2017-07-05T06:59:59.028Z,43968
2017-07-05T07:00:59.709Z,46848
2017-07-05T07:01:59.694Z,45248
2017-07-05T07:02:59.707Z,43040
2017-07-05T07:03:59.390Z,40768
2017-07-05T07:04:59.376Z,46912
2017-07-05T07:05:59.715Z,49696
2017-07-05T07:06:59.424Z,46848
2017-07-05T07:07:59.387Z,45856
2017-07-05T07:08:59.396Z,47648
2017-07-05T07:09:59.729Z,47552
2017-07-05T07:10:59.405Z,52096
2017-07-05T07:11:59.082Z,52224
2017-07-05T07:12:59.744Z,54944
2017-07-05T07:13:59.425Z,57440
2017-07-05T07:14:59.099Z,56288
2017-07-05T07:15:59.130Z,55328
2017-07-05T07:16:59.464Z,54880
2017-07-05T07:17:59.782Z,56800
2017-07-05T07:18:59.458Z,55744
2017-07-05T07:19:59.161Z,55520
2017-07-05T07:21:00.132Z,58208
2017-07-05T07:21:59.798Z,60000
2017-07-05T07:22:59.164Z,59392
2017-07-05T07:23:59.491Z,57344
2017-07-05T07:24:59.822Z,57120
2017-07-05T07:25:59.537Z,58560
2017-07-05T07:26:59.185Z,61184
2017-07-05T07:27:59.846Z,62272
2017-07-05T07:28:59.533Z,59872
2017-07-05T07:30:00.215Z,58720
2017-07-05T07:30:59.215Z,58240
2017-07-05T07:31:59.553Z,56640
2017-07-05T07:32:59.562Z,48800
2017-07-05T07:33:59.245Z,60864
2017-07-05T07:34:59.620Z,57760
2017-07-05T07:35:59.278Z,55744
2017-07-05T07:36:59.918Z,59936
2017-07-05T07:37:59.979Z,59296
2017-07-05T07:38:59.948Z,58304
2017-07-05T07:40:00.285Z,59072
2017-07-05T07:40:59.633Z,61120
2017-07-05T07:41:59.329Z,62656
2017-07-05T07:42:59.657Z,61952
2017-07-05T07:44:00.009Z,62144
2017-07-05T07:44:59.698Z,53120
2017-07-05T07:46:00.027Z,62624
2017-07-05T07:46:59.361Z,60768
2017-07-05T07:47:59.371Z,58176
2017-07-05T07:48:59.391Z,58176
2017-07-05T07:49:59.402Z,61248
2017-07-05T07:50:59.738Z,63648
2017-07-05T07:51:59.735Z,66208
2017-07-05T07:52:59.411Z,62624
2017-07-05T07:54:00.076Z,36320
2017-07-05T07:54:59.429Z,12708
2017-07-05T07:55:59.769Z,8352
2017-07-05T07:56:59.777Z,7804
2017-07-05T07:58:00.118Z,7440
2017-07-05T07:58:59.467Z,7224
2017-07-05T07:59:59.808Z,7056
2017-07-05T08:00:59.483Z,6932
2017-07-05T08:01:59.494Z,6824
2017-07-05T08:02:59.837Z,6708
2017-07-05T08:03:59.839Z,6608
2017-07-05T08:04:59.850Z,6520
2017-07-05T08:05:59.530Z,6476
2017-07-05T08:06:59.540Z,6444
2017-07-05T08:07:59.549Z,6436
2017-07-05T08:08:59.562Z,6444
2017-07-05T08:09:59.893Z,6480
2017-07-05T08:10:59.573Z,6504
2017-07-05T08:11:59.913Z,6564
2017-07-05T08:12:59.921Z,6644
2017-07-05T08:13:59.933Z,6772
2017-07-05T08:14:59.607Z,6900
2017-07-05T08:16:00.285Z,7036
2017-07-05T08:16:59.968Z,7184
2017-07-05T08:17:59.629Z,7348
2017-07-05T08:18:59.968Z,7512
2017-07-05T08:19:59.661Z,7676
2017-07-05T08:20:59.984Z,7812
2017-07-05T08:22:00.356Z,7904
2017-07-05T08:22:59.994Z,7968
2017-07-05T08:23:59.682Z,8124
2017-07-05T08:24:59.699Z,8388
2017-07-05T08:25:59.688Z,8692
2017-07-05T08:27:00.357Z,9172
2017-07-05T08:28:00.030Z,8840
2017-07-05T08:29:00.036Z,8604
2017-07-05T08:30:00.404Z,8444
2017-07-05T08:31:00.417Z,9072
2017-07-05T08:31:59.723Z,10124
2017-07-05T08:33:00.732Z,11280
2017-07-05T08:34:00.075Z,10844
2017-07-05T08:34:59.755Z,10848
2017-07-05T08:36:00.149Z,10540
2017-07-05T08:37:00.109Z,9516
2017-07-05T08:38:00.097Z,9328
2017-07-05T08:38:59.775Z,10304
2017-07-05T08:40:00.106Z,11440
2017-07-05T08:41:00.104Z,12356
2017-07-05T08:42:00.438Z,13340
2017-07-05T08:42:59.786Z,13304
2017-07-05T08:44:00.118Z,13032
2017-07-05T08:45:00.452Z,11992
2017-07-05T08:46:00.129Z,11092
2017-07-05T08:47:00.465Z,11084
2017-07-05T08:48:00.137Z,11868
2017-07-05T08:49:00.146Z,11776
2017-07-05T08:50:00.154Z,12140
2017-07-05T08:50:59.844Z,12112
2017-07-05T08:52:00.483Z,11132
2017-07-05T08:53:00.174Z,10616
2017-07-05T08:53:59.840Z,10608
2017-07-05T08:55:00.175Z,11380
2017-07-05T08:56:00.503Z,12988
2017-07-05T08:56:59.851Z,13980
2017-07-05T08:58:00.181Z,14420
2017-07-05T08:58:59.860Z,14076
2017-07-05T09:00:00.191Z,14064
2017-07-05T09:01:00.213Z,14260
2017-07-05T09:02:00.527Z,14120
2017-07-05T09:03:00.205Z,12320
2017-07-05T09:03:59.909Z,12256
2017-07-05T09:05:00.242Z,12764
2017-07-05T09:06:00.574Z,12044
2017-07-05T09:07:00.222Z,10116
2017-07-05T09:08:00.600Z,9836
2017-07-05T09:08:59.944Z,10680
2017-07-05T09:10:00.245Z,10928
2017-07-05T09:11:00.573Z,11136
2017-07-05T09:11:59.921Z,11160
2017-07-05T09:13:00.250Z,11700
2017-07-05T09:14:00.254Z,12000
2017-07-05T09:15:00.605Z,11212
2017-07-05T09:16:00.310Z,11064
2017-07-05T09:17:00.604Z,10080
2017-07-05T09:18:00.273Z,11380
2017-07-05T09:19:00.272Z,12280
2017-07-05T09:20:00.606Z,11296
2017-07-05T09:21:00.306Z,11664
2017-07-05T09:22:00.305Z,9596
2017-07-05T09:23:00.293Z,7920
2017-07-05T09:24:00.314Z,6776
2017-07-05T09:24:59.979Z,6148
2017-07-05T09:26:00.335Z,5336
2017-07-05T09:26:59.991Z,5328
2017-07-05T09:28:00.326Z,6036
2017-07-05T09:29:00.002Z,6492
2017-07-05T09:29:59.994Z,6528
2017-07-05T09:31:00.652Z,7128
2017-07-05T09:32:00.014Z,9748
2017-07-05T09:33:00.345Z,10688
2017-07-05T09:34:00.009Z,10248
2017-07-05T09:35:00.337Z,8740
2017-07-05T09:36:00.012Z,7684
2017-07-05T09:37:00.026Z,6688
2017-07-05T09:38:00.346Z,8448
2017-07-05T09:39:00.353Z,10052
2017-07-05T09:40:00.046Z,11352
2017-07-05T09:41:00.357Z,12996
2017-07-05T09:42:00.032Z,13404
2017-07-05T09:43:00.035Z,13048
2017-07-05T09:44:00.037Z,12272
2017-07-05T09:45:00.044Z,11756
2017-07-05T09:46:00.712Z,10704
2017-07-05T09:47:00.705Z,9756
2017-07-05T09:48:00.388Z,8924
2017-07-05T09:49:01.063Z,8544
2017-07-05T09:50:01.056Z,8460
2017-07-05T09:51:00.404Z,7728
2017-07-05T09:52:00.070Z,7608
2017-07-05T09:53:00.405Z,6964
2017-07-05T09:54:00.407Z,6408
2017-07-05T09:55:00.445Z,6388
2017-07-05T09:56:00.109Z,5912
2017-07-05T09:57:00.449Z,5980
2017-07-05T09:58:00.431Z,6016
2017-07-05T09:59:00.757Z,6020
2017-07-05T10:00:00.103Z,6036
2017-07-05T10:01:00.108Z,6056
2017-07-05T10:02:00.790Z,6592
2017-07-05T10:03:00.780Z,6380
2017-07-05T10:04:00.449Z,6208
2017-07-05T10:05:00.451Z,6204
2017-07-05T10:06:00.476Z,6184
2017-07-05T10:07:00.462Z,6068
2017-07-05T10:08:00.138Z,5896
2017-07-05T10:09:00.141Z,5768
2017-07-05T10:10:00.804Z,5808
2017-07-05T10:11:00.808Z,5356
2017-07-05T10:12:00.482Z,5100
2017-07-05T10:13:00.169Z,4992
2017-07-05T10:14:00.177Z,5696
2017-07-05T10:15:00.175Z,5880
2017-07-05T10:16:00.179Z,5976
2017-07-05T10:17:00.837Z,5864
2017-07-05T10:18:00.849Z,6280
2017-07-05T10:19:00.182Z,6252
2017-07-05T10:20:00.185Z,6912
2017-07-05T10:21:00.843Z,7604
2017-07-05T10:22:00.527Z,8348
2017-07-05T10:23:00.195Z,8240
2017-07-05T10:24:00.561Z,8388
2017-07-05T10:25:00.200Z,8488
2017-07-05T10:26:00.530Z,8760
2017-07-05T10:27:00.868Z,8988
2017-07-05T10:28:00.564Z,8844
2017-07-05T10:29:00.544Z,8996
2017-07-05T10:30:00.547Z,9424
2017-07-05T10:31:00.553Z,9960
2017-07-05T10:32:00.558Z,10544
2017-07-05T10:33:00.567Z,10640
2017-07-05T10:34:00.564Z,10708
2017-07-05T10:35:01.231Z,11028
2017-07-05T10:36:00.591Z,11820
2017-07-05T10:37:00.250Z,12984
2017-07-05T10:38:00.581Z,14140
2017-07-05T10:39:00.258Z,14284
2017-07-05T10:40:00.268Z,14376
2017-07-05T10:41:00.633Z,14088
2017-07-05T10:42:00.283Z,14648
2017-07-05T10:43:00.941Z,15904
2017-07-05T10:44:00.284Z,16480
2017-07-05T10:45:00.618Z,16928
2017-07-05T10:46:00.307Z,17344
2017-07-05T10:47:00.288Z,16736
2017-07-05T10:48:00.312Z,16364
2017-07-05T10:49:00.975Z,16416
2017-07-05T10:50:00.660Z,14912
2017-07-05T10:51:00.332Z,12976
2017-07-05T10:52:00.315Z,11444
2017-07-05T10:53:00.649Z,11596
2017-07-05T10:54:00.986Z,11912
2017-07-05T10:55:00.665Z,12928
2017-07-05T10:56:00.332Z,13316
2017-07-05T10:57:00.683Z,13396
2017-07-05T10:58:01.002Z,13408
2017-07-05T10:59:00.676Z,13064
2017-07-05T11:00:00.683Z,12096
2017-07-05T11:01:00.686Z,10624
2017-07-05T11:02:01.018Z,9120
2017-07-05T11:03:00.366Z,7656
2017-07-05T11:04:00.698Z,7088
2017-07-05T11:05:00.376Z,7900
2017-07-05T11:06:01.038Z,9360
2017-07-05T11:07:00.388Z,10180
2017-07-05T11:08:00.717Z,10340
2017-07-05T11:09:00.403Z,9076
2017-07-05T11:10:01.054Z,7952
2017-07-05T11:11:00.402Z,7200
2017-07-05T11:12:00.418Z,6136
2017-07-05T11:13:01.407Z,5584
2017-07-05T11:14:00.744Z,5868
2017-07-05T11:15:00.441Z,6260
2017-07-05T11:16:00.752Z,7304
2017-07-05T11:17:00.766Z,8736
2017-07-05T11:18:00.760Z,9676
2017-07-05T11:19:00.763Z,9784
2017-07-05T11:20:01.434Z,9200
2017-07-05T11:21:00.782Z,8420
2017-07-05T11:22:00.443Z,7624
2017-07-05T11:23:00.464Z,7016
2017-07-05T11:24:00.471Z,6664
2017-07-05T11:25:00.453Z,6612
2017-07-05T11:26:00.785Z,6400
2017-07-05T11:27:00.463Z,6380
2017-07-05T11:28:00.465Z,6492
2017-07-05T11:29:00.830Z,7128
2017-07-05T11:30:00.816Z,7848
2017-07-05T11:31:00.805Z,8668
2017-07-05T11:32:00.810Z,9908
2017-07-05T11:33:01.163Z,10764
2017-07-05T11:34:01.138Z,11208
2017-07-05T11:35:01.159Z,11208
2017-07-05T11:36:00.837Z,10060
2017-07-05T11:37:00.825Z,9356
2017-07-05T11:38:00.881Z,8844
2017-07-05T11:39:00.874Z,8692
2017-07-05T11:40:00.830Z,8672
2017-07-05T11:41:00.849Z,8600
2017-07-05T11:42:00.842Z,8860
2017-07-05T11:43:01.501Z,9364
2017-07-05T11:44:00.511Z,10116
2017-07-05T11:45:00.848Z,10624
2017-07-05T11:46:00.523Z,10752
2017-07-05T11:47:00.513Z,10572
2017-07-05T11:48:00.521Z,11528
2017-07-05T11:49:00.856Z,12528
2017-07-05T11:50:01.520Z,12352
2017-07-05T11:51:00.859Z,11864
2017-07-05T11:52:00.868Z,11492
2017-07-05T11:53:01.191Z,11464
2017-07-05T11:54:00.884Z,11148
2017-07-05T11:55:00.866Z,10676
2017-07-05T11:56:00.877Z,9764
2017-07-05T11:57:01.236Z,8312
2017-07-05T11:58:01.209Z,7620
2017-07-05T11:59:00.891Z,7272
2017-07-05T12:00:00.885Z,6976
2017-07-05T12:01:00.556Z,6840
2017-07-05T12:02:00.887Z,7068
2017-07-05T12:03:00.915Z,8472
2017-07-05T12:04:00.920Z,10208
2017-07-05T12:05:01.245Z,11940
2017-07-05T12:06:00.631Z,12868
2017-07-05T12:07:00.913Z,12760
2017-07-05T12:08:01.581Z,12256
2017-07-05T12:09:00.579Z,11568
2017-07-05T12:10:00.912Z,11004
2017-07-05T12:11:01.244Z,10908
2017-07-05T12:12:00.927Z,10652
2017-07-05T12:13:00.924Z,10740
2017-07-05T12:14:01.256Z,9788
2017-07-05T12:15:00.952Z,9436
2017-07-05T12:16:00.931Z,8804
2017-07-05T12:17:01.277Z,8260
2017-07-05T12:18:01.268Z,7140
2017-07-05T12:19:00.978Z,5620
2017-07-05T12:20:01.281Z,4696
2017-07-05T12:21:01.306Z,5288
2017-07-05T12:22:00.944Z,7048
2017-07-05T12:23:00.950Z,8780
2017-07-05T12:24:01.281Z,9656
2017-07-05T12:25:00.987Z,10432
2017-07-05T12:26:01.305Z,11248
2017-07-05T12:27:00.649Z,13436
2017-07-05T12:28:01.293Z,16576
2017-07-05T12:29:00.636Z,15816
2017-07-05T12:30:01.333Z,14768
2017-07-05T12:31:00.969Z,13672
2017-07-05T12:32:00.644Z,12724
2017-07-05T12:33:00.974Z,12316
2017-07-05T12:34:01.312Z,12056
2017-07-05T12:35:01.337Z,12464
2017-07-05T12:36:00.987Z,12572
2017-07-05T12:37:00.682Z,14220
2017-07-05T12:38:01.367Z,15724
2017-07-05T12:39:00.661Z,15568
2017-07-05T12:40:01.030Z,14356
2017-07-05T12:41:00.703Z,14120
2017-07-05T12:42:01.018Z,14260
2017-07-05T12:43:01.017Z,15192
2017-07-05T12:44:00.672Z,14908
2017-07-05T12:45:00.685Z,14020
2017-07-05T12:46:01.005Z,12760
2017-07-05T12:47:01.348Z,11676
2017-07-05T12:48:01.345Z,11128
2017-07-05T12:49:00.684Z,11028
2017-07-05T12:50:01.017Z,10700
2017-07-05T12:51:01.019Z,10340
2017-07-05T12:52:01.725Z,9724
2017-07-05T12:53:00.707Z,9720
2017-07-05T12:54:01.354Z,10664
2017-07-05T12:55:00.702Z,12200
2017-07-05T12:56:00.704Z,12600
2017-07-05T12:57:01.037Z,13220
2017-07-05T12:58:01.041Z,13532
2017-07-05T12:59:00.716Z,13548
2017-07-05T13:00:00.716Z,12692
2017-07-05T13:01:01.380Z,12084
2017-07-05T13:02:00.723Z,12268
2017-07-05T13:03:01.400Z,13924
2017-07-05T13:04:00.739Z,14052
2017-07-05T13:05:01.079Z,13936
2017-07-05T13:06:01.389Z,13864
2017-07-05T13:07:01.080Z,14064
2017-07-05T13:08:01.235Z,14024
2017-07-05T13:09:00.772Z,12312
2017-07-05T13:10:01.424Z,11364
2017-07-05T13:11:00.775Z,10296
2017-07-05T13:12:00.773Z,9556
2017-07-05T13:13:01.421Z,10412
2017-07-05T13:14:00.770Z,10596
2017-07-05T13:15:01.424Z,10204
2017-07-05T13:16:01.101Z,11556
2017-07-05T13:17:01.116Z,11532
2017-07-05T13:18:01.095Z,10884
2017-07-05T13:19:01.601Z,10804
2017-07-05T13:20:00.790Z,9592
2017-07-05T13:21:00.795Z,8004
2017-07-05T13:22:01.436Z,7152
2017-07-05T13:23:01.115Z,6736
2017-07-05T13:24:00.935Z,7404
2017-07-05T13:25:01.489Z,9072
2017-07-05T13:26:00.803Z,10240
2017-07-05T13:27:01.473Z,10616
2017-07-05T13:28:01.129Z,10476